createdAt,value
2023-03-10T00:01:40.015Z,2.80
2023-03-10T00:04:37.437Z,2.90
2023-03-10T00:07:07.280Z,2.50
2023-03-10T00:09:37.286Z,2.70
2023-03-10T00:12:06.572Z,2.20
2023-03-10T00:14:36.838Z,2.60
2023-03-10T00:17:30.480Z,2.50
2023-03-10T00:20:07.393Z,2.50
2023-03-10T00:22:41.399Z,3.30
2023-03-10T00:25:10.357Z,3.10
2023-03-10T00:27:42.584Z,2.90
2023-03-10T00:30:13.618Z,3.20
2023-03-10T00:32:50.421Z,2.60
2023-03-10T00:35:22.775Z,2.70
2023-03-10T00:37:51.122Z,2.80
2023-03-10T00:40:23.694Z,2.40
2023-03-10T00:42:58.962Z,3.00
2023-03-10T00:45:27.988Z,2.50
2023-03-10T00:47:58.901Z,2.50
2023-03-10T00:50:53.571Z,2.70
2023-03-10T00:53:27.193Z,2.30
2023-03-10T00:56:14.091Z,2.70
2023-03-10T00:58:43.495Z,2.80
2023-03-10T01:01:34.418Z,2.70
2023-03-10T01:04:09.551Z,2.80
2023-03-10T01:06:39.782Z,2.70
2023-03-10T01:09:10.889Z,2.80
2023-03-10T01:11:44.806Z,2.50
2023-03-10T01:14:14.675Z,2.60
2023-03-10T01:16:42.858Z,3.20
2023-03-10T01:19:15.526Z,2.90
2023-03-10T01:21:43.732Z,3.00
2023-03-10T01:24:14.809Z,2.90
2023-03-10T01:26:44.680Z,3.30
2023-03-10T01:29:15.972Z,3.30
2023-03-10T01:31:48.254Z,3.00
2023-03-10T01:34:16.062Z,4.30
2023-03-10T01:36:46.341Z,2.50
2023-03-10T01:39:16.734Z,3.40
2023-03-10T01:41:43.941Z,3.10
2023-03-10T01:44:17.494Z,3.50
2023-03-10T01:46:49.996Z,3.40
2023-03-10T01:49:25.997Z,2.90
2023-03-10T01:52:15.583Z,2.70
2023-03-10T01:54:56.201Z,2.80
2023-03-10T01:57:25.259Z,2.70
2023-03-10T01:59:55.629Z,2.60
2023-03-10T02:02:25.107Z,2.40
2023-03-10T02:04:55.831Z,2.70
2023-03-10T02:09:59.928Z,3.10
2023-03-10T02:12:38.900Z,2.90
2023-03-10T02:15:10.534Z,3.50
2023-03-10T02:17:42.995Z,2.40
2023-03-10T02:20:31.129Z,3.00
2023-03-10T02:23:01.066Z,2.90
2023-03-10T02:25:52.804Z,2.40
2023-03-10T02:28:46.750Z,3.10
2023-03-10T02:31:17.528Z,3.00
2023-03-10T02:33:47.390Z,2.60
2023-03-10T02:36:21.166Z,2.90
2023-03-10T02:38:51.614Z,6.70
2023-03-10T02:41:29.277Z,8.80
2023-03-10T02:44:00.266Z,9.30
2023-03-10T02:46:32.088Z,11.00
2023-03-10T02:49:04.903Z,11.60
2023-03-10T02:51:42.354Z,9.80
2023-03-10T02:54:16.832Z,12.10
2023-03-10T02:56:46.699Z,11.60
2023-03-10T02:59:16.012Z,11.90
2023-03-10T03:01:50.462Z,11.10
2023-03-10T03:04:21.026Z,10.80
2023-03-10T03:06:48.800Z,12.00
2023-03-10T03:09:20.871Z,9.30
2023-03-10T03:11:48.506Z,9.30
2023-03-10T03:14:19.662Z,8.50
2023-03-10T03:16:50.234Z,8.60
2023-03-10T03:21:20.836Z,6.40
2023-03-10T03:23:52.335Z,7.90
2023-03-10T03:26:26.437Z,6.50
2023-03-10T03:28:59.849Z,5.40
2023-03-10T03:31:38.396Z,4.70
2023-03-10T03:34:15.318Z,5.30
2023-03-10T03:36:47.577Z,4.90
2023-03-10T03:39:20.073Z,4.60
2023-03-10T03:41:56.880Z,5.40
2023-03-10T03:44:30.328Z,4.60
2023-03-10T03:46:59.664Z,3.60
2023-03-10T03:49:34.989Z,2.80
2023-03-10T03:52:03.632Z,3.20
2023-03-10T03:54:36.550Z,3.00
2023-03-10T03:57:06.296Z,2.20
2023-03-10T03:59:40.277Z,2.70
2023-03-10T04:02:10.723Z,2.40
2023-03-10T04:04:43.524Z,2.50
2023-03-10T04:07:11.754Z,2.80
2023-03-10T04:09:43.011Z,2.90
2023-03-10T04:12:17.655Z,2.30
2023-03-10T04:14:49.350Z,2.40
2023-03-10T04:17:18.838Z,2.20
2023-03-10T04:20:06.284Z,2.40
2023-03-10T04:22:43.387Z,2.30
2023-03-10T04:25:12.588Z,2.10
2023-03-10T04:27:41.025Z,1.90
2023-03-10T04:30:13.350Z,1.50
2023-03-10T04:32:49.307Z,1.50
2023-03-10T04:35:25.670Z,1.60
2023-03-10T04:37:58.664Z,1.40
2023-03-10T04:40:27.459Z,2.00
2023-03-10T04:42:55.036Z,1.60
2023-03-10T04:45:24.339Z,1.90
2023-03-10T04:47:52.856Z,1.40
2023-03-10T04:50:23.531Z,1.80
2023-03-10T04:52:52.188Z,1.90
2023-03-10T04:55:24.851Z,2.00
2023-03-10T04:57:55.858Z,1.80
2023-03-10T05:00:31.803Z,1.50
2023-03-10T05:03:04.292Z,1.40
2023-03-10T05:05:37.416Z,2.10
2023-03-10T05:08:13.600Z,1.40
2023-03-10T05:10:44.939Z,1.50
2023-03-10T05:13:16.410Z,1.40
2023-03-10T05:15:55.052Z,1.30
2023-03-10T05:18:25.679Z,1.60
2023-03-10T05:20:57.095Z,1.50
2023-03-10T05:23:25.685Z,1.80
2023-03-10T05:25:55.597Z,1.80
2023-03-10T05:31:14.557Z,1.10
2023-03-10T05:33:44.705Z,1.40
2023-03-10T05:36:15.468Z,1.50
2023-03-10T05:38:44.838Z,1.30
2023-03-10T05:41:17.827Z,1.30
2023-03-10T05:43:52.445Z,1.30
2023-03-10T05:46:23.956Z,1.80
2023-03-10T05:48:56.025Z,1.80
2023-03-10T05:51:27.754Z,1.80
2023-03-10T05:53:56.019Z,1.50
2023-03-10T05:56:30.920Z,1.50
2023-03-10T05:59:02.527Z,1.40
2023-03-10T06:01:37.910Z,1.80
2023-03-10T06:04:06.280Z,1.70
2023-03-10T06:06:47.525Z,1.70
2023-03-10T06:09:24.506Z,1.80
2023-03-10T06:14:32.450Z,1.90
2023-03-10T06:17:03.008Z,1.70
2023-03-10T06:19:42.034Z,1.60
2023-03-10T06:22:11.680Z,1.80
2023-03-10T06:24:40.275Z,1.40
2023-03-10T06:27:12.031Z,2.10
2023-03-10T06:29:40.837Z,2.10
2023-03-10T06:32:12.258Z,1.50
2023-03-10T06:34:43.223Z,1.50
2023-03-10T06:37:12.060Z,1.80
2023-03-10T06:39:42.097Z,1.80
2023-03-10T06:42:12.022Z,1.80
2023-03-10T06:44:49.389Z,1.50
2023-03-10T06:47:20.638Z,1.40
2023-03-10T06:49:54.229Z,1.60
2023-03-10T06:52:31.153Z,1.30
2023-03-10T06:55:29.861Z,1.90
2023-03-10T06:58:06.090Z,1.40
2023-03-10T07:00:39.861Z,1.20
2023-03-10T07:03:11.913Z,1.60
2023-03-10T07:05:48.101Z,1.60
2023-03-10T07:08:26.406Z,1.30
2023-03-10T07:11:00.448Z,1.20
2023-03-10T07:13:34.649Z,1.40
2023-03-10T07:16:05.793Z,1.20
2023-03-10T07:18:37.440Z,1.00
2023-03-10T07:21:10.772Z,1.20
2023-03-10T07:23:41.450Z,1.10
2023-03-10T07:26:13.926Z,1.00
2023-03-10T07:28:46.503Z,1.30
2023-03-10T07:31:17.360Z,1.20
2023-03-10T07:36:25.923Z,1.50
2023-03-10T07:39:01.506Z,1.60
2023-03-10T07:41:30.939Z,1.20
2023-03-10T07:43:59.102Z,1.50
2023-03-10T07:46:28.093Z,2.60
2023-03-10T07:49:00.605Z,2.20
2023-03-10T07:52:14.810Z,1.80
2023-03-10T07:54:50.651Z,1.70
2023-03-10T07:57:32.407Z,2.60
2023-03-10T08:00:02.588Z,1.80
2023-03-10T08:02:46.249Z,2.20
2023-03-10T08:07:52.132Z,2.40
2023-03-10T08:10:21.206Z,2.10
2023-03-10T08:12:54.208Z,1.90
2023-03-10T08:18:16.968Z,2.00
2023-03-10T08:20:44.835Z,1.70
2023-03-10T08:23:28.177Z,2.10
2023-03-10T08:26:00.743Z,1.90
2023-03-10T08:31:26.375Z,2.00
2023-03-10T08:34:05.546Z,2.50
2023-03-10T08:36:40.251Z,1.90
2023-03-10T08:39:08.250Z,1.70
2023-03-10T08:42:37.324Z,1.70
2023-03-10T08:45:13.659Z,2.30
2023-03-10T08:48:38.571Z,1.60
2023-03-10T08:51:09.570Z,1.80
2023-03-10T08:53:39.281Z,1.70
2023-03-10T09:00:26.593Z,1.90
2023-03-10T09:02:57.626Z,1.90
2023-03-10T09:05:39.395Z,1.60
2023-03-10T09:08:40.163Z,2.00
2023-03-10T09:11:09.439Z,2.00
2023-03-10T09:14:16.747Z,2.20
2023-03-10T09:16:50.609Z,1.90
2023-03-10T09:19:25.976Z,2.10
2023-03-10T09:22:02.340Z,2.60
2023-03-10T09:24:35.956Z,1.70
2023-03-10T09:27:26.225Z,1.70
2023-03-10T09:30:30.566Z,1.30
2023-03-10T09:33:04.494Z,1.40
2023-03-10T09:35:34.307Z,1.40
2023-03-10T09:38:12.413Z,1.70
2023-03-10T09:40:48.624Z,1.40
2023-03-10T09:43:55.595Z,1.80
2023-03-10T09:47:12.696Z,2.00
2023-03-10T09:50:16.297Z,2.00
2023-03-10T09:53:16.093Z,1.70
2023-03-10T09:55:52.665Z,2.20
2023-03-10T09:58:48.343Z,2.50
2023-03-10T10:01:21.140Z,2.40
2023-03-10T10:04:39.376Z,2.40
2023-03-10T10:07:20.751Z,2.00
2023-03-10T10:10:21.112Z,2.20
2023-03-10T10:12:57.647Z,1.90
2023-03-10T10:15:27.833Z,2.00
2023-03-10T10:18:25.590Z,2.40
2023-03-10T10:21:41.776Z,2.30
2023-03-10T10:24:54.650Z,2.20
2023-03-10T10:27:27.732Z,2.10
2023-03-10T10:30:34.901Z,2.10
2023-03-10T10:33:12.233Z,2.40
2023-03-10T10:35:45.804Z,2.20
2023-03-10T10:38:15.337Z,2.80
2023-03-10T10:41:19.583Z,3.30
2023-03-10T10:43:51.813Z,2.10
2023-03-10T10:46:34.149Z,2.70
2023-03-10T10:49:35.032Z,2.50
2023-03-10T10:52:20.229Z,2.30
2023-03-10T10:54:58.411Z,3.20
2023-03-10T10:57:35.874Z,2.30
2023-03-10T11:00:18.024Z,2.50
2023-03-10T11:02:52.547Z,2.40
2023-03-10T11:05:31.395Z,2.80
2023-03-10T11:08:18.822Z,3.10
2023-03-10T11:10:53.402Z,2.90
2023-03-10T11:13:28.980Z,5.90
2023-03-10T11:16:16.428Z,4.10
2023-03-10T11:19:25.290Z,3.40
2023-03-10T11:21:59.138Z,3.70
2023-03-10T11:24:41.030Z,5.30
2023-03-10T11:27:39.424Z,4.00
2023-03-10T11:30:17.276Z,3.00
2023-03-10T11:33:14.771Z,3.30
2023-03-10T11:35:55.112Z,3.70
2023-03-10T11:38:42.780Z,4.50
2023-03-10T11:41:22.838Z,4.40
2023-03-10T11:44:22.649Z,5.40
2023-03-10T11:46:58.960Z,5.70
2023-03-10T11:49:39.673Z,6.00
2023-03-10T11:52:17.483Z,5.30
2023-03-10T11:54:49.835Z,6.30
2023-03-10T11:57:45.472Z,6.00
2023-03-10T12:00:26.910Z,5.00
2023-03-10T12:03:18.161Z,5.20
2023-03-10T12:05:59.113Z,5.80
2023-03-10T12:08:36.718Z,5.10
2023-03-10T12:11:34.672Z,5.40
2023-03-10T12:14:05.693Z,4.90
2023-03-10T12:16:39.204Z,4.40
2023-03-10T12:19:11.206Z,5.80
2023-03-10T12:21:47.195Z,7.40
2023-03-10T12:24:42.466Z,10.50
2023-03-10T12:27:15.745Z,29.90
2023-03-10T12:29:45.870Z,28.00
2023-03-10T12:32:41.898Z,40.50
2023-03-10T12:35:33.142Z,36.10
2023-03-10T12:38:29.814Z,37.50
2023-03-10T12:40:58.953Z,49.90
2023-03-10T12:43:52.085Z,23.30
2023-03-10T12:46:41.876Z,11.10
2023-03-10T12:49:41.508Z,11.70
2023-03-10T12:52:29.928Z,8.80
2023-03-10T12:55:24.502Z,8.20
2023-03-10T12:58:24.035Z,11.70
2023-03-10T13:01:19.893Z,30.20
2023-03-10T13:03:56.760Z,9.80
2023-03-10T13:06:40.786Z,8.50
2023-03-10T13:09:36.936Z,13.80
2023-03-10T13:12:16.939Z,14.10
2023-03-10T13:14:50.247Z,14.10
2023-03-10T13:17:23.319Z,14.30
2023-03-10T13:19:57.084Z,15.30
2023-03-10T13:22:26.205Z,8.70
2023-03-10T13:25:15.039Z,7.70
2023-03-10T13:27:46.437Z,7.70
2023-03-10T13:30:21.476Z,5.70
2023-03-10T13:32:57.977Z,4.10
2023-03-10T13:35:29.954Z,4.80
2023-03-10T13:38:20.363Z,5.00
2023-03-10T13:41:01.938Z,6.90
2023-03-10T13:43:38.491Z,6.80
2023-03-10T13:46:26.243Z,6.40
2023-03-10T13:48:57.769Z,5.30
2023-03-10T13:51:32.231Z,5.00
2023-03-10T13:54:43.234Z,4.60
2023-03-10T13:57:31.656Z,4.80
2023-03-10T14:00:09.007Z,3.40
2023-03-10T14:02:50.375Z,2.80
2023-03-10T14:05:46.232Z,3.70
2023-03-10T14:08:27.618Z,3.90
2023-03-10T14:11:33.964Z,4.80
2023-03-10T14:14:02.169Z,4.80
2023-03-10T14:16:54.209Z,4.40
2023-03-10T14:19:43.001Z,5.20
2023-03-10T14:22:30.089Z,4.50
2023-03-10T14:25:00.430Z,5.90
2023-03-10T14:27:30.151Z,4.60
2023-03-10T14:30:01.864Z,6.10
2023-03-10T14:32:34.569Z,5.90
2023-03-10T14:35:10.385Z,4.60
2023-03-10T14:38:07.146Z,4.50
2023-03-10T14:40:40.301Z,4.00
2023-03-10T14:43:13.695Z,4.00
2023-03-10T14:45:44.067Z,4.00
2023-03-10T14:48:19.826Z,4.70
2023-03-10T14:50:56.278Z,3.70
2023-03-10T14:53:26.629Z,4.50
2023-03-10T14:55:57.763Z,3.40
2023-03-10T14:58:32.200Z,5.00
2023-03-10T15:01:00.767Z,4.70
2023-03-10T15:03:34.165Z,5.30
2023-03-10T15:06:06.201Z,5.70
2023-03-10T15:08:52.369Z,6.10
2023-03-10T15:11:37.118Z,6.40
2023-03-10T15:14:25.610Z,6.80
2023-03-10T15:17:05.220Z,9.10
2023-03-10T15:19:37.389Z,7.50
2023-03-10T15:22:09.002Z,6.80
2023-03-10T15:24:45.402Z,8.30
2023-03-10T15:27:23.140Z,6.20
2023-03-10T15:29:55.495Z,5.60
2023-03-10T15:32:55.435Z,5.70
2023-03-10T15:35:28.741Z,5.80
2023-03-10T15:39:25.521Z,5.00
2023-03-10T15:42:04.767Z,4.40
2023-03-10T15:44:34.695Z,4.10
2023-03-10T15:47:10.280Z,5.10
2023-03-10T15:49:45.071Z,4.80
2023-03-10T15:52:17.461Z,5.10
2023-03-10T15:54:46.523Z,4.10
2023-03-10T15:57:16.028Z,3.70
2023-03-10T15:59:44.938Z,5.00
2023-03-10T16:02:15.031Z,6.70
2023-03-10T16:04:44.330Z,3.90
2023-03-10T16:07:17.313Z,3.40
2023-03-10T16:09:51.314Z,2.80
2023-03-10T16:12:22.964Z,3.40
2023-03-10T16:14:59.521Z,3.40
2023-03-10T16:17:31.510Z,3.80
2023-03-10T16:20:11.910Z,4.20
2023-03-10T16:22:42.569Z,5.70
2023-03-10T16:25:18.490Z,6.60
2023-03-10T16:27:47.159Z,5.50
2023-03-10T16:30:17.051Z,7.10
2023-03-10T16:32:54.099Z,4.50
2023-03-10T16:35:21.902Z,5.80
2023-03-10T16:37:51.330Z,6.00
2023-03-10T16:40:22.413Z,6.60
2023-03-10T16:42:56.328Z,6.40
2023-03-10T16:45:27.016Z,7.50
2023-03-10T16:47:56.548Z,9.90
2023-03-10T16:50:26.231Z,11.80
2023-03-10T16:52:56.352Z,11.30
2023-03-10T16:55:26.692Z,13.00
2023-03-10T16:57:54.274Z,13.90
2023-03-10T17:00:23.913Z,15.60
2023-03-10T17:02:53.728Z,14.40
2023-03-10T17:05:22.724Z,16.00
2023-03-10T17:08:01.982Z,18.30
2023-03-10T17:10:30.740Z,13.10
2023-03-10T17:13:00.706Z,14.10
2023-03-10T17:15:32.720Z,13.60
2023-03-10T17:18:02.664Z,13.40
2023-03-10T17:20:38.772Z,14.00
2023-03-10T17:23:52.756Z,14.50
2023-03-10T17:26:27.373Z,15.70
2023-03-10T17:28:58.998Z,15.30
2023-03-10T17:32:49.208Z,15.60
2023-03-10T17:35:18.033Z,15.40
2023-03-10T17:37:51.628Z,13.80
2023-03-10T17:43:17.637Z,20.60
2023-03-10T17:46:07.579Z,19.40
2023-03-10T17:48:43.895Z,20.60
2023-03-10T17:51:16.760Z,18.20
2023-03-10T17:53:53.815Z,20.70
2023-03-10T17:56:51.799Z,14.50
2023-03-10T17:59:26.962Z,13.80
2023-03-10T18:02:02.197Z,15.50
2023-03-10T18:04:35.244Z,12.20
2023-03-10T18:07:04.046Z,11.50
2023-03-10T18:09:51.114Z,11.00
2023-03-10T18:12:24.612Z,9.50
2023-03-10T18:14:55.860Z,8.40
2023-03-10T18:17:31.768Z,10.20
2023-03-10T18:20:14.106Z,8.90
2023-03-10T18:23:12.637Z,7.90
2023-03-10T18:25:48.466Z,7.70
2023-03-10T18:28:20.747Z,6.70
2023-03-10T18:31:22.017Z,8.60
2023-03-10T18:34:15.256Z,10.00
2023-03-10T18:39:27.254Z,5.70
2023-03-10T18:41:56.852Z,7.10
2023-03-10T18:44:27.606Z,7.50
2023-03-10T18:47:05.899Z,7.50
2023-03-10T18:49:39.750Z,8.20
2023-03-10T18:52:15.734Z,7.50
2023-03-10T18:54:47.223Z,6.00
2023-03-10T18:59:51.921Z,7.50
2023-03-10T19:02:27.981Z,6.20
2023-03-10T19:05:25.791Z,6.50
2023-03-10T19:08:03.893Z,7.00
2023-03-10T19:10:33.016Z,7.00
2023-03-10T19:13:02.638Z,8.00
2023-03-10T19:15:34.177Z,8.80
2023-03-10T19:20:59.901Z,7.50
2023-03-10T19:26:02.102Z,7.30
2023-03-10T19:28:34.254Z,7.60
2023-03-10T19:31:15.777Z,7.70
2023-03-10T19:33:49.874Z,6.60
2023-03-10T19:36:45.115Z,6.00
2023-03-10T19:39:48.307Z,6.00
2023-03-10T19:42:47.154Z,5.40
2023-03-10T19:45:49.014Z,5.70
2023-03-10T19:48:47.762Z,5.90
2023-03-10T19:51:29.971Z,6.40
2023-03-10T19:54:04.859Z,6.50
2023-03-10T19:56:37.182Z,6.30
2023-03-10T19:59:09.744Z,5.60
2023-03-10T20:01:48.242Z,7.50
2023-03-10T20:04:18.349Z,5.70
2023-03-10T20:06:46.339Z,5.50
2023-03-10T20:09:22.094Z,6.30
2023-03-10T20:11:58.976Z,6.70
2023-03-10T20:14:27.933Z,4.80
2023-03-10T20:20:20.011Z,6.10
2023-03-10T20:22:50.464Z,6.40
2023-03-10T20:25:27.607Z,5.80
2023-03-10T20:27:58.676Z,5.50
2023-03-10T20:30:55.844Z,6.20
2023-03-10T20:33:25.968Z,5.90
2023-03-10T20:35:55.509Z,6.40
2023-03-10T20:38:54.061Z,6.90
2023-03-10T20:41:29.527Z,7.40
2023-03-10T20:44:09.023Z,7.80
2023-03-10T20:46:45.148Z,5.90
2023-03-10T20:49:18.325Z,5.80
2023-03-10T20:51:49.354Z,6.50
2023-03-10T20:54:45.708Z,6.50
2023-03-10T20:57:18.393Z,7.00
2023-03-10T20:59:53.619Z,5.80
2023-03-10T21:02:23.428Z,7.40
2023-03-10T21:04:54.845Z,7.10
2023-03-10T21:07:22.701Z,6.50
2023-03-10T21:09:53.354Z,7.00
2023-03-10T21:12:56.634Z,9.00
2023-03-10T21:15:35.158Z,10.30
2023-03-10T21:18:06.454Z,6.80
2023-03-10T21:20:40.401Z,7.60
2023-03-10T21:23:14.607Z,7.50
2023-03-10T21:25:53.670Z,7.20
2023-03-10T21:28:24.761Z,6.90
2023-03-10T21:30:56.084Z,6.30
2023-03-10T21:33:27.575Z,6.50
2023-03-10T21:36:10.588Z,6.10
2023-03-10T21:39:45.773Z,6.70
2023-03-10T21:42:18.083Z,6.30
2023-03-10T21:44:52.239Z,6.50
2023-03-10T21:47:22.977Z,6.20
2023-03-10T21:49:59.864Z,5.10
2023-03-10T21:52:34.613Z,6.70
2023-03-10T21:55:04.407Z,6.50
2023-03-10T21:57:38.861Z,6.30
2023-03-10T22:00:12.105Z,7.40
2023-03-10T22:02:42.660Z,7.80
2023-03-10T22:05:14.133Z,7.10
2023-03-10T22:07:47.683Z,7.50
2023-03-10T22:10:19.780Z,7.00
2023-03-10T22:12:54.943Z,7.30
2023-03-10T22:15:31.303Z,6.80
2023-03-10T22:21:39.057Z,7.40
2023-03-10T22:24:08.770Z,8.10
2023-03-10T22:26:38.281Z,7.20
2023-03-10T22:29:08.064Z,8.00
2023-03-10T22:31:35.740Z,9.40
2023-03-10T22:34:04.231Z,9.50
2023-03-10T22:36:35.106Z,10.50
2023-03-10T22:39:05.270Z,11.20
2023-03-10T22:41:32.333Z,12.60
2023-03-10T22:44:01.592Z,14.20
2023-03-10T22:46:32.176Z,14.80
2023-03-10T22:49:01.235Z,12.30
2023-03-10T22:51:29.912Z,11.40
2023-03-10T22:54:00.273Z,11.90
2023-03-10T22:56:29.122Z,11.90
2023-03-10T22:58:58.148Z,11.90
2023-03-10T23:01:26.162Z,11.40
2023-03-10T23:03:53.941Z,11.50
2023-03-10T23:06:28.786Z,12.20
2023-03-10T23:08:57.182Z,12.20
2023-03-10T23:11:25.109Z,15.50
2023-03-10T23:13:54.728Z,15.10
2023-03-10T23:16:27.168Z,16.30
2023-03-10T23:18:56.037Z,15.30
2023-03-10T23:21:24.710Z,12.60
2023-03-10T23:23:52.284Z,10.50
2023-03-10T23:26:20.660Z,13.10
2023-03-10T23:28:51.618Z,11.40
2023-03-10T23:31:22.467Z,12.40
2023-03-10T23:33:56.881Z,10.90
2023-03-10T23:36:24.999Z,9.40
2023-03-10T23:38:54.176Z,9.70
2023-03-10T23:41:28.867Z,10.50
2023-03-10T23:43:58.043Z,10.30
2023-03-10T23:46:26.708Z,10.50
2023-03-10T23:48:55.453Z,10.20
2023-03-10T23:51:25.792Z,9.90
2023-03-10T23:53:53.416Z,9.50
2023-03-10T23:56:22.102Z,10.60
2023-03-10T23:58:50.359Z,9.50
